sze, 2017 december 13. @ 07:41 (Europe/Budapest) | Időzóna választás

Keresés

Keresés

Találd meg a csapatokat és bajnokságokat gyorsan

Hasonlitás

Hasonlitás

Klikkelj erre h2h az ikonra bárhol a csapatok összehasonlitásához és a statisztikák megtekintéséhez

Mérkőzések

Mérkőzések

Nézd meg a mai mérkőzések, a holnapi mérkőzések, a tegnapi eredmények listáját vagy bármely dátum mérkőzéseit a naptár segitségével


Legnépszerűbb bajnokságok


Tippjáték, totó, virtuális fogadások - több, mint 1.000 Euró havi nyeremények ITT!

Mérkőzések - 2017.10.14

Csoportosítás: bajnokság szerint | idő szerint
Idő Hazai Eredmény Vendég 1 X 2 H2H
 Futball Anglia Championship 2017/2018
16:00 Norwich 1 : 1 Hull 1.93 3.55 3.81
16:00 Bolton 2 : 1 Sheffield Wednesday 4.15 3.33 1.91
16:00 Leeds 0 : 1 Reading 1.79 3.50 4.58
16:00 Barnsley 2 : 2 Middlesbrough 4.04 3.44 1.91
16:00 Fulham 2 : 2 Preston 1.95 3.46 3.83
16:00 Sunderland 1 : 1 Q.P.R. 2.24 3.23 3.25
16:00 Brentford 1 : 0 Millwall 1.83 3.58 4.25
16:00 Sheffield United 1 : 0 Ipswich 1.76 3.41 5.00
18:30 Wolverhampton 2 : 0 Aston Villa 1.99 3.25 3.78
 Futball Anglia FA Cup 2017/2018
13:30 St. Albans 1 : 3 Boreham Wood 3.11 3.39 2.07
16:00 Stourbridge 0 : 5 Macclesfield 3.53 3.74 1.80
16:00 Buxton 1 : 2 Gateshead 4.54 3.77 1.61
16:00 Halifax 1 : 3 Tranmere 3.36 3.26 2.04
16:00 Eastleigh 1 : 2 Hereford 1.79 3.44 3.92
16:00 Solihull 1 : 1 Ossett Town 1.30 5.06 7.20
16:00 Harrogate Town 1 : 2 Gainsborough 1.29 4.81 8.15
16:00 Burgess Hill Town 0 : 1 Dartford 4.45 3.79 1.62
16:00 Woking 1 : 1 Concord Rangers 1.46 4.12 5.75
16:00 Maidenhead United 2 : 1 Havant & W 1.56 3.75 5.05
16:00 Dagenham & Redbridge 0 : 0 Leyton 1.95 3.26 3.61
16:00 Kidderminster 2 : 0 Chester 2.17 3.52 2.88
16:00 Nantwich Town 1 : 1 Kettering 3.23 3.78 1.89
16:00 Brackley Town 3 : 3 Billericay Town 2.52 3.30 2.47
16:00 Paulton Rovers 2 : 3 Sutton UTD 6.90 4.77 1.32
16:00 Slough 1 : 0 Folkestone 1.73 3.98 3.66
16:00 Bath City 0 : 0 Chelmsford City 2.69 3.29 2.32
16:00 Fylde 1 : 0 Wrexham 2.30 3.23 2.82
16:00 Chorley 0 : 0 Boston Utd. 1.68 3.71 4.24
16:00 Oxford City 1 : 0 Bognor Regis Town 2.05 3.44 3.10
16:00 Telford 3 : 1 FC United Of Manchester 1.85 3.50 3.63
16:00 Margate 1 : 2 Leatherhead 1.74 3.71 3.81
16:00 Dover Athletic 0 : 0 Bromley 1.76 3.40 4.27
16:00 Guiseley 6 : 0 Shildon 1.40 4.62 5.95
16:00 South Shields 1 : 2 Hartlepool 3.44 3.78 1.80
16:00 Alderschot 1 : 0 Torquay 1.59 3.59 5.34
16:00 Scarborough 0 : 2 Hyde United 2.11 3.73 2.72
16:00 East Thurrock United 0 : 0 Ebbsfleet United 3.73 3.58 1.85
16:00 Maidstone United 2 : 2 Enfield 1.36 4.29 7.15
16:00 Hampton Richmond 0 : 2 Truro City 1.92 3.48 3.44
16:00 Haringey Borough 2 : 4 Heybridge 2.10 3.98 2.64
 Futball Anglia League One 2017/2018
16:00 Wigan 3 : 0 Southend 1.47 4.31 6.45
16:00 Plymouth 1 : 1 Shrewsbury 3.19 3.46 2.13
16:00 Fleetwood Town 2 : 2 Rochdale 2.52 3.26 2.70
16:00 Walsall 1 : 1 Blackpool 2.42 3.33 2.77
16:00 Peterborough 0 : 1 Gillingham 1.49 4.37 5.75
16:00 Charlton 1 : 0 Doncaster 2.33 3.43 2.84
16:00 Rotherham 2 : 0 Scunthorpe 2.10 3.35 3.32
16:00 Oldham 1 : 0 Blackburn 4.30 3.50 1.81
16:00 Bury 3 : 1 Bradford 3.02 3.52 2.17
16:00 Portsmouth 2 : 0 Milton Keynes 1.83 3.54 4.04
16:00 Northampton 0 : 1 AFC Wimbledon 3.13 3.24 2.24
16:00 Bristol Rovers 0 : 1 Oxford 2.05 3.58 3.24
 Futball Anglia League Two 2017/2018
16:00 Forest Green 0 : 4 Newport 3.19 3.30 2.18
16:00 Yeovil 2 : 0 Crewe 2.60 3.24 2.60
16:00 Mansfield 1 : 3 Swindon 1.98 3.34 3.66
16:00 Colchester 0 : 1 Carlisle 2.54 3.40 2.58
16:00 Wycombe 0 : 0 Exeter 2.10 3.48 3.19
16:00 Luton 7 : 1 Stevenage 1.59 3.89 5.25
16:00 Lincoln 0 : 0 Cambridge 1.90 3.40 3.95
16:00 Chesterfield 0 : 2 Morecambe 2.22 3.38 3.01
16:00 Port Vale 3 : 1 Cheltenham 2.72 3.28 2.47
16:00 Grimsby 0 : 0 Crawley Town 2.05 3.40 3.40
16:00 Accrington Stanley 1 : 0 Coventry 3.15 3.22 2.22
16:00 Notts County 2 : 1 Barnet 1.95 3.46 3.60
 Futball Anglia Premiership 2017/2018
13:30 Liverpool 0 : 0 Manchester United 2.68 3.26 2.70
16:00 Manchester City 7 : 2 Stoke 1.12 9.20 18.20
16:00 Crystal Palace 2 : 1 Chelsea 7.65 4.56 1.42
16:00 Tottenham 1 : 0 Bournemouth 1.21 6.80 12.80
16:00 Burnley 1 : 1 West Ham 2.80 3.21 2.61
16:00 Swansea 2 : 0 Huddersfield 2.02 3.22 4.10
18:30 Watford 2 : 1 Arsenal 5.05 4.13 1.62
 Futball Argentina Primera Division 2017/2018
00:05 Lanus 2 : 1 Union Santa Fe 1.88 3.12 4.06
02:05 San Lorenzo 3 : 1 Defensa y Justicia 2.01 2.97 3.72
19:05 Rosario 1 : 3 Argentinos 1.60 3.42 5.50
19:05 Colon Santa Fe 2 : 0 Temperley 1.65 3.27 5.40
21:15 Estudiantes 1 : 1 Banfield 1.93 3.01 3.88
23:05 Velez Sarsfield 1 : 0 Newell's 1.98 3.03 3.85
 Futball Ausztrália A-League 2017/2018
08:35 Western Sydney 2 : 2 Central Coast Mariners 1.35 4.84 7.35
10:50 Melbourne Victory 1 : 2 Melbourne Heart 2.18 3.40 3.04
 Futball Ausztria Bundesliga 2017/2018
16:00 LASK Linz 1 : 3 Austria Salzburg 4.73 3.56 1.70
18:30 Rapid Wien 1 : 0 St. Pölten 1.32 4.75 8.45
18:30 SC Rheindorf Altach 2 : 2 Fc Admira 1.97 3.43 3.50
18:30 St. Andrä 2 : 2 Mattersburg SV 2.19 3.25 3.12
 Jégkorong Ausztria Eishockey Liga 2017/2018
19:15 CE Wien 5 : 3 Innsbruck 1.41 5.33 5.12
 Kézilabda Ausztria HLA M 2017/2018
19:00 Hurricanes Linz 27 : 32 Austria Fivers Aon 4.10 10.17 1.32
19:00 HC Sb 32 : 26 Schwaz 5.83 12.00 1.18
 Futball Belgium 1e Klasse 2017/2018
18:00 Charleroi 2 : 2 Eupen 1.57 3.88 5.64
20:00 Lokeren KSC 1 : 1 St. Truidense 2.37 3.16 2.98
20:00 Genk 1 : 1 Mouscron 1.42 4.50 7.00
20:30 Gent 2 : 0 Waasland 1.50 4.20 6.15
 Futball Belgium 2e Klasse 2017/2018
17:00 Cercle Brugge 1 : 1 Roeselare 1.69 3.60 4.43
 Futball Bosznia Premier Liga 2017/2018
15:30 Radnik Bijeljina 2 : 0 Vitez NK 1.53 3.65 5.63
15:30 Krupa na Vrbasu 1 : 2 Siroki Brijeg NK 2.17 3.35 2.83
17:00 Zrinjski Mostar 0 : 0 Borac Banja Luka 1.43 4.47 5.25
18:00 Sloboda Tuzla 1 : 3 Sarajevo FK 3.13 3.31 2.04
 Futball Bulgária A PFG 2017/2018
14:30 Slavia Sofia 3 : 0 Dunav Ruse 2.04 3.20 3.28
19:00 Černo More Varna 0 : 1 Ludogorets Razgrad 6.10 4.23 1.42
 Futball Chile Primera Division 2017
02:00 Everton 1 : 1 Curicó Unido 1.89 3.19 3.88
17:00 Deportes Temuco 1 : 1 San Luis de Quillota 2.01 3.22 3.43
20:30 Palestino 4 : 0 Unión Espaňola 2.60 3.22 2.46
23:00 Antofagasta 0 : 2 Universidad de Chile 2.28 3.05 2.96
 Jégkorong CHL Kontinental Hockey League 2017/2018
13:00 Barys Astana 4 : 3 ot Red Star Kunlun 2.13 4.08 2.77
13:00 Omsk 0 : 1 Chabarovsk Amur 1.44 5.00 5.67
13:30 Čeljabinsk 2 : 1 Slovan Bratislava 1.89 4.08 3.37
13:30 Yugra Khanty-Mansiysk 1 : 3 Admiral Vladivostok 2.50 3.98 2.38
14:00 Jekatěrinburg 2 : 3 CSKA Moskva 4.18 4.32 1.66
14:00 Magnitogorsk 3 : 1 Vitiaz Chekhov 1.57 4.95 4.42
 Kézilabda CL Champions League M 2017/2018
15:00 Chehovski Medvedi Moskau 26 : 32 Metalurg Skopje 1.88 8.67 2.28
15:00 Besiktas Istanbul 28 : 28 Zaporozhye ZTR 3.57 9.67 1.43
17:30 Vardar Vatrost. Skopje 27 : 24 FC Barcelona 1.84 8.63 2.38
17:30 Nantes HBC 34 : 25 Kristianstad IFK 1.16 14.75 6.75
19:00 Celje Pivovarna Lasko 33 : 33 Brestskiy HC Meshkovo 2.35 8.83 1.85
 Kézilabda CL Champions League W 2017/2018
15:00 Ljubljana Krim 27 : 26 Nykobing NFH 3.07 9.00 1.54
16:00 Vag Kristiansand 29 : 19 Buducnost Podgorica 1.48 9.58 3.32
18:00 Budapest FTC 37 : 33 Larvik HK 1.04 19.67 13.33
19:00 Bietigheim SG BBM 26 : 30 Metz 1.62 9.00 2.83
 Futball Csehország 1. liga 2017/2018
17:00 Zlín 2 : 1 Jihlava 1.53 3.73 5.69
17:00 Brno 2 : 1 Slovácko 1. FC 2.10 3.05 3.44
17:00 Liberec 3 : 0 Dukla Praha FK 1.65 3.64 4.64
17:00 Mladá Boleslav 2 : 2 Teplice 1.90 3.31 3.75
17:00 Olomouc 0 : 0 Jablonec 2.10 3.15 3.30
20:00 Karviná FC 0 : 2 Slavia Praha 5.55 3.68 1.55
 Jégkorong Csehország 1st League 2017/2018
17:00 České Budějovice 3 : 0 P 1.52 4.75 4.12
17:00 Prostějov 3 : 2 ot Kladno 2.47 4.12 2.18
17:00 Kadaň 3 : 5 Karlovy Vary 6.25 6.08 1.27
17:00 Fr 6 : 5 ot(p) Ústí n. Labem 1.72 4.58 3.22
17:30 Slavia Praha 3 : 0 Benátky 1.73 4.37 3.28
17:30 Havířov 2 : 1 ot Litoměřice 1.94 4.28 2.75
17:30 Vsetín 1 : 3 Třebíč 1.90 4.25 2.87
 Futball Csehország 2. liga 2017/2018
10:15 Pardubice Tesla 2 : 0 Vlašim 2.24 3.22 2.79
15:00 Frýdek-Místek VP 0 : 0 Hradec Králové 2.45 3.14 2.57
15:30 Sezimovo Ústí 1 : 0 Třinec 2.19 3.31 2.88
18:00 Opava 3 : 3 Varnsdorf 1.39 4.33 6.25
 Kézilabda Csehország Extraleague M 2017/2018
17:00 Nov 24 : 24 Jičín 1.36 9.25 3.90
18:00 Kopřivnice 34 : 32 Dukla Praha 2.60 9.25 1.65
18:00 Strakonice 24 : 23 Brno 3.50 10.00 1.40
 Kosárlabda Csehország National League M 2017/2018
16:00 Olomoucko BK 104 : 83 Ústí nad Labem 1.93 - 1.76
17:30 Ostrava NH 85 : 80 Brno 1.60 - 2.17
18:00 Děčín 64 : 99 Nymburk 6.50 - 1.08
 Kézilabda Dánia 1st League M 2017/2018
16:10 Sonderjyske 23 : 28 Kolding KIF 2.23 8.50 1.92
 Futball Dánia Superligaen 2017/2018
16:00 Nordsjalland FC 3 : 2 Randers Freja 2.03 3.54 3.48
 Futball Ecuador Primera A 2017
02:30 Barcelona 1 : 1 Independiente José Terán 1.61 3.58 4.93
02:30 Universidad Catolica Quito 2 : 2 Deportivo Cuenca 2.20 3.20 2.99
22:00 Delfin Manta 2 : 1 El Nacional Quito 1.63 3.62 4.63
Postp. Fuerza Amarilla - : - River Plate (ECU) 1.89 3.16 3.84
 Kosárlabda Észtország 1st League M 2017/2018
16:10 Kalev/Rapla BC 84 : 78 Rock Tartu - - -
 Futball Észtország Meistriliiga 2017
12:00 Tulevik Viljandi 0 : 1 Narva Trans 2.74 3.50 2.17
12:00 Kalev Sillamae 1 : 2 Tammeka Tartu 1.84 3.35 3.68
15:00 Flora Paide 0 : 4 Levadia Tallin 15.25 8.50 1.09
18:00 Flora Tallin 3 : 0 P 1.02 16.25 32.25
 Futball Fehéroroszország Premier League 2017
13:00 Isloch Minsk 1 : 1 Krumkachy 1.80 3.30 4.06
16:00 Shakhtsyor Salihorsk 0 : 1 Dynamo Minsk 1.95 3.22 3.58
 Jégkorong Finnország Mestis 2017/2018
16:00 LeKi 5 : 4 RoKi Rovaniemi 2.09 4.48 2.53
16:00 Kiekko-Vantaa 1 : 4 Jokipojat Joensuu 1.72 4.68 3.28
16:00 KeuPa HT 5 : 2 SaPKo Savonlinnan 2.00 4.42 2.68
16:00 HeKi Heinolan 4 : 3 ot Kettera Imarta 1.83 4.78 2.88
 Jégkorong Finnország SM Liiga 2017/2018
16:00 Ässät Pori 2 : 5 Hämeenlinna 2.12 3.97 2.90
16:00 Saipa 1 : 0 Lukko Rauma 2.67 3.98 2.23
16:00 Kärpät 3 : 2 Kalpa Kuopio 1.55 4.53 4.75
16:00 Ilves Tampere 1 : 4 Lahti Pelicans 2.23 4.05 2.62
17:30 TPS Turku 2 : 5 IFK Helsinki 2.10 3.93 2.90
17:30 KooKoo Kouvola 4 : 3 ot Tappara Tampere 3.63 4.02 1.82
 Futball Finnország Ykkönen 2017
14:00 OJT Oulu 0 : 10 Honka Espoo 6.95 5.08 1.31
14:00 Jaro Jakobstad 1 : 3 Oulu 1.85 3.59 3.54
14:00 Valkeakoski Haka 1 : 1 KPV Kokkola 2.11 3.48 2.98
14:00 TPS Turku 3 : 1 Gnistan Helsinki 1.16 6.75 11.15
14:00 EIF Tammisaari 3 : 3 GrIFK Kauniainen 1.49 4.25 5.08
 Futball Franciaország Ligue 1 2017/2018
17:00 Dijon 1 : 2 Paris SG 19.40 8.20 1.13
20:00 Lille 2 : 2 Troyes 1.61 3.75 5.75
20:00 Caen 0 : 2 Angers 2.43 3.06 3.12
20:00 Guingamp 2 : 0 Rennes 2.09 3.25 3.60
20:00 St. Etienne 3 : 1 Metz 1.55 3.90 6.35
20:00 Toulouse 1 : 0 Amiens 1.82 3.24 4.97
 Futball Franciaország Ligue 2 2017/2018
14:55 Clermont 3 : 0 Le Havre 2.21 3.06 3.27
 Futball Franciaország National 2017/2018
14:45 Laval 1 : 1 Consolat Marseille 2.00 2.97 3.66
 Kosárlabda Franciaország Pro A M 2017/2018
18:30 Nanterre 93 : 77 Antibes 1.14 14.00 5.50
19:00 Monaco 86 : 62 Cholet Basket 1.05 17.00 8.75
19:30 Hyeres Toulon 78 : 72 Paris-Levallois 2.50 12.00 1.55
20:00 Boulazac 70 : 73 Chalons-Reims 1.45 12.00 2.85
20:00 Villeurbanne Asvel Lyon 83 : 69 Le Portel 1.22 14.00 4.30
20:00 Le Mans 91 : 70 Bourg Jeunesse 1.35 13.00 3.25
 Kézilabda Franciaország Pro A W 2017/2018
19:00 Fleury 29 : 27 Bourg de Peage 1.17 12.33 6.00
 Kosárlabda Franciaország Pro A W 2017/2018
20:00 Tarbes Gespe Bigorre 87 : 54 Union Hainaut 1.60 - 2.17
20:00 Landes Basket 61 : 58 Lyon 1.30 - 3.23
20:00 Charleville 73 : 66 Roche Vendee 1.08 - 6.63
20:00 Lille Villeneuve ESB 79 : 66 Nice 1.04 - 8.00
20:00 Reze 45 : 93 Bourges CJM 4.72 - 1.14
20:00 Mondeville USO Basket 72 : 95 Montpellier AB 2.67 - 1.40
 Kosárlabda Görögország A1 M 2017/2018
15:30 Rethimno Ago 95 : 90 Koroivos Amaliadas 1.25 13.00 3.60
15:30 Promitheas Patras 91 : 80 Larissa Faros BC 1.20 13.00 4.20
15:30 Panionios Athens 70 : 90 Kolossos Rodou 4.00 13.00 1.22
15:30 Trikalla AS 91 : 79 Lavrio GS 1.62 12.00 2.25
16:00 Aris Saloniki 64 : 62 AEK Athens 2.15 12.00 1.65
 Futball Görögország Super League 2017/2018
15:00 Yiannina 3 : 1 Platanias 1.72 3.36 5.45
17:15 Atromitos Athinon FC 1 : 0 Asteras Tripolis 2.15 3.09 3.71
19:30 Panionios Athens 3 : 4 Olympiakos Piraeus 5.72 3.80 1.59
 Futball Hollandia Eredivisie 2017/2018
18:30 Roda Kerkade 1 : 0 NAC Breda 2.53 3.36 2.63
18:30 Ajax Amsterdam 4 : 0 Sparta Rotterdam 1.11 8.60 17.40
20:45 Utrecht 3 : 1 Heerenveen 1.84 3.83 3.75
20:45 Feyenoord 0 : 0 Zwolle FC 1.31 5.30 8.45
 Futball Horvátország 1. HNL 2017/2018
15:00 Istra 1961 Pula 1 : 0 HNK Rijeka 11.75 4.80 1.25
19:00 Dinamo Zagreb 1 : 1 HNK Osijek 1.36 4.40 8.05
 Kézilabda Horvátország 1.liga M 2017/2018
18:00 Metalac 34 : 28 Karlovac - - -
19:00 Poreč 27 : 18 Zamet - - -
19:30 Umag 26 : 21 Spacva Vinkovci - - -
19:30 Sesvete 28 : 26 Gorica - - -
 Kosárlabda Horvátország A1 M 2017/2018
18:00 Hermes Zagreb 75 : 72 Jazine Zadar 1.95 - 1.70
 Futball Irország Premier League 2017
19:30 Limerick 37 1 : 0 Drogheda United 1.33 4.82 7.25
 Kosárlabda Izrael 1st League M 2017/2018
17:55 Nahariya 102 : 87 Hapoel Tel Aviv - - -
19:40 Hapoel Jerusalem 90 : 85 Maccabi Rishon Le Zion - - -
 Futball Izrael Ligat Al 2017/2018
17:00 Maccabi Petah-Tikva 2 : 2 Maccabi Haifa 3.77 3.19 1.91
17:30 Hapoel Haifa 4 : 0 Hapoel Acre 1.54 3.72 5.44
18:00 Ashdod SC 1 : 1 Hapoel Ashkelon 2.68 3.05 2.50
19:30 Hapoel Ranana 1 : 3 Hapoel Beer Sheva 7.69 4.35 1.35
 Futball Japán J League 2017
06:00 Sapporo 3 : 0 Reysol 4.10 3.32 1.81
07:00 Shimizu 0 : 3 Jubilo 2.85 3.19 2.32
07:00 Gamba 0 : 1 Niigata 1.66 3.78 4.32
07:00 Marinos 1 : 1 Omiya Ardija 1.76 3.38 4.26
08:00 Kawasaki F. 3 : 2 Vegalta Sendai 1.47 4.32 5.45
08:00 Kashima 2 : 0 Hiroshima 1.65 3.44 4.98
12:00 Urawa 1 : 1 Vissel Kobe 1.65 3.66 4.51
 Jégkorong Jégkorong NHL 2017/2018
01:00 New Jersey 2 : 5 Washington 2.95 3.93 2.13
01:00 Columbus 3 : 1 NY Rangers 2.13 3.88 2.98
03:00 Calgary 0 : 6 Ottawa 2.09 3.92 3.03
03:00 Colorado 3 : 1 Anaheim 2.62 3.88 2.35
04:30 Las Vegas 3 : 6 Detroit 2.16 3.90 2.90
 Kézilabda Lengyelország 1.liga M 2017/2018
13:00 Lubin Zaglebie 21 : 36 Wisla Plock SSA 13.33 19.00 1.03
18:00 Pulawy Wisla-Azoty 33 : 22 Pogon Szczecin 1.04 17.67 11.33
18:00 Stal Mielec 33 : 25 Wybrzeze Gdansk 1.76 9.17 2.37
18:00 Piotrkowianin-Kiper 31 : 26 Elblag Darad 1.35 9.67 3.85
18:00 Legionowo KPR 22 : 31 Chroby Glogow AMD 4.60 11.33 1.26
18:30 Kalisz MKS 22 : 21 Spojnia Gdynia 1.50 9.50 3.00
 Kézilabda Lengyelország 1.liga W 2017/2018
16:00 Pogon Szczecin 28 : 23 Kobierzyce KPR 1.08 16.50 8.75
17:00 Politechnika KU AZS 32 : 23 Ruch Chorzów 1.01 23.00 15.00
18:00 Laczpol Gdynia 28 : 24 Piotrkow Piotrcovia 1.05 18.50 10.50
 Futball Lengyelország Ekstraklasa 2017/2018
15:30 Piast Gliwice 2 : 2 Sandecja Nowy Sącz 2.02 3.23 3.62
18:00 Nieciecza LKS 1 : 1 Arka Gdynia 2.34 3.15 2.93
20:30 Slask Wroclaw 0 : 2 Wisla Kraków 2.13 3.24 3.29
 Kosárlabda Lengyelország Ekstraklasa W 2017/2018
17:00 Lublin AZS 68 : 58 Gorzow Wielkopolski PWSZ 2.23 - 1.56
17:00 Sosnowiec KS 93 : 51 Poznan AZS 1.10 - 6.00
 Kosárlabda Lengyelország Ekstraliga M 2017/2018
18:00 Starogard Gdaňsk 82 : 77 Zastal Zielona Góra 3.40 13.00 1.28
 Futball Lengyelország I Liga 2017/2018
13:00 Górnik Leczna 1 : 1 Pogo 2.19 3.12 3.06
17:00 Tychy GKS 1 : 1 Puszcza Niepo 1.92 3.32 3.58
17:00 Chrobry G 3 : 3 Wigry Suwałki 1.97 3.22 3.55
17:15 Stomil Olsztyn 2 : 0 Odra Opole 2.29 3.22 2.78
17:45 Podbeskidzie Bielsko-Biała 1 : 2 Katowice GKS 2.26 3.20 2.87
18:00 Olimpia Grudziądz 0 : 1 Miedz Legnica 3.14 2.97 2.23
18:00 Bytovia Bytów 2 : 2 Zaglebie Sosnowiec 2.23 3.18 2.94
 Futball Lettország Virsliga 2017
13:00 Spartaks Jurmala 0 : 1 Jelgava RAF 1.51 3.59 6.13
15:00 Daugava Riga 1 : 2 Metalurgs Liepaja 2.15 3.20 3.12
18:00 Metta LU Riga FS 0 : 2 Caramba 9.88 4.14 1.32
 Kosárlabda Litvánia 1st League M 2017/2018
14:00 Alytus Alita 88 : 86 Juventus-LKSK Utenos 2.80 13.00 1.40
16:00 Pieno zvaigzdes 80 : 74 Rudupis Prienu 1.35 12.00 3.10
16:20 Lietuvos Rytas 92 : 79 Neptunas Klaipeda 1.40 12.00 2.85
 Futball Litvánia A Lyga 2017
12:00 Utenis Utena 1 : 2 Lietava Jonava 2.04 3.23 3.28
14:00 Spyris Kaunas 1 : 5 Suduva Marijampole 12.00 5.50 1.19
 Futball Macedónia First League 2017/2018
14:30 Pelister Bitola 2 : 1 Pobeda Prilep 1.55 3.60 5.25
14:30 Vardar Skopje 4 : 2 Shkendija 79 Tetovo 1.75 3.73 3.93
14:30 Skopje FK 1 : 1 Sileks Krakovo 2.65 3.05 2.45
14:30 Renova FK 3 : 1 Rabotnički 2.50 3.00 2.65
14:30 Akademija Pandev 2 : 0 Shkupi Skopje 1.70 3.25 4.70
 Kosárlabda Magyarország 1st League W 2017/2018
13:00 Ceglédi EKK 77 : 62 BEAC Újbuda - - -
18:00 Budapest BSE 46 : 86 Miskolc DKSK - - -
19:45 Atomeromu KSC Szekszárd 76 : 49 Bajai NKK - - -
 Futball Magyarország NB I 2017/2018
15:30 Mezokovesd Zsory 0 : 2 Debrecen 3.04 3.21 2.19
15:30 Balmaz 1 : 1 Fc Fehérvár 3.84 3.42 1.82
15:30 Újpest Budapest 0 : 0 Paksi FC 2.03 3.35 3.29
15:30 Diósgyőri VTK 5 : 0 Vasas Budapest 2.23 3.22 2.92
15:30 Szombathelyi Haladás 1 : 2 Budapest Honvéd 3.33 3.27 2.05
19:30 Puskás Akadémia 1 : 1 Ferencvárosi TC 2.94 3.25 2.22
 Futball Mexikó Primera Division 2017/2018
02:00 Puebla 2 : 2 G.B. Querétaro 2.11 3.00 3.42
04:00 Tijuana Xoloitzcuintles 0 : 0 Veracruz 1.50 3.86 5.95
 Futball Moldova Divizia Nationala 2017/2018
14:00 Olimpia Baltis 3 : 0 Spicul Chiscareni 1.25 4.97 9.50
14:00 Speranta 0 : 0 Dacia Kišiněv 5.75 3.72 1.51
14:00 Milsami Orhei 1 : 0 Zimbru Kišiněv 1.30 4.32 9.19
 Futball Montenegro Prva Liga 2017/2018
14:30 Petrovac OFK 2 : 3 Grbalj Radanovici FK 2.27 2.83 3.25
14:30 Mladost Podgorica FK 1 : 1 Rudar Plevlja 1.68 3.43 4.65
14:30 Zeta Golubovci 1 : 1 Decic Tuzi FK 1.22 4.63 14.67
14:30 Sutjeska Niksic 4 : 0 Kom Podgorica 1.33 4.27 8.58
 Futball Németország 2. Liga 2017/2018
13:00 Bielefeld 0 : 2 Düsseldorf 2.47 3.20 2.78
13:00 Dresden 2 : 2 Ingolstadt 3.23 3.32 2.16
13:00 Bochum 2 : 0 Sandhausen 2.20 3.19 3.24
 Futball Németország 3. Liga 2017/2018
14:00 Wehen SV 0 : 1 Meppen 1.51 3.99 5.75
14:00 Jena 1 : 0 Rostock 2.28 3.08 3.09
14:00 Unterhaching 1 : 0 Münster 2.28 3.35 2.96
14:00 Chemnitzer 3 : 1 Lotte Sportfreunde 2.23 3.24 3.05
14:00 Paderborn 7 : 1 Bremen (Am.) 1.63 3.66 4.98
14:00 Aalen VfR 2 : 2 Zwickau 1.98 3.21 3.74
14:00 Karlsruher 2 : 0 W 2.25 3.08 3.16
 Futball Németország Bundesliga 2017/2018
15:30 Hertha Berlin 0 : 2 Schalke 04 2.60 3.18 2.78
15:30 Hannover 96 1 : 2 Frankfurt Eintracht 2.50 3.14 2.91
15:30 Bayern München 5 : 0 Freiburg 1.07 12.20 25.00
15:30 Hoffenheim 2 : 2 Augsburg FC 1.79 3.73 4.31
15:30 Mainz 3 : 2 Hamburg SV 1.73 3.61 4.89
18:30 Dortmund 2 : 3 Leipzig 1.52 4.29 5.75
 Kézilabda Németország Bundesliga W 2017/2018
19:30 Oldenburg VfL 32 : 30 Nellingen TV 1.06 16.50 10.00
 Jégkorong Norvégia Eliteserien 2017/2018
16:00 Lorenskog 2 : 7 Storhamar 5.50 5.50 1.39
16:00 Sapsborg Sparta 5 : 1 Kongsvinger 1.13 9.67 11.33
 Futball Norvégia Tippeligaen 2017
15:30 Tromsö 0 : 3 Rosenborg Trondheim 3.52 3.45 1.94
18:00 Stromsgodset 1 : 0 Odd Grenland 1.92 3.28 3.83
 Kosárlabda Olaszország A1 M 2017/2018
19:00 Pallacanestro Trento 56 : 66 Brescia 1.35 13.00 3.20
20:30 Avellino 72 : 63 Torino PMS 1.42 13.00 2.85
20:45 Brindisi 74 : 77 Venezia 2.05 11.50 1.82
20:45 Scavolini Pesaro 75 : 81 Virtus Bologna 2.60 13.00 1.50
 Futball Olaszország Serie A 2017/2018
18:00 Juventus 1 : 2 Lazio Roma 1.58 3.96 5.85
20:45 AS Roma 0 : 1 Napoli 3.16 3.54 2.17
 Futball Olaszország Serie B 2017/2018
15:00 Frosinone 0 : 0 Palermo 1.88 3.19 4.31
15:00 Brescia 0 : 1 Novara 2.24 2.98 3.37
15:00 Ternana 4 : 2 Spezia 2.70 2.89 2.77
15:00 Ascoli 3 : 3 Venezia AC 2.58 2.90 2.86
15:00 Pro Vercelli 2 : 2 Bari 2.84 2.76 2.73
15:00 Cittadella 1 : 2 Cremonese 1.98 3.23 3.79
15:00 Parma 0 : 1 Pescara 1.98 3.40 3.53
15:00 Carpi 2 : 1 Cesena 1.91 3.04 4.37
 Kosárlabda Oroszország 1st League W 2017/2018
14:00 Spartak Noginsk 71 : 83 Novosibirsk Dynamo-Energiya - - -
 Futball Oroszország Premier League 2017/2018
13:00 Dynamo Moskva 2 : 0 SKA Chabarovsk 1.35 4.26 9.05
15:30 Ural Sverdlovskaya Oblast 2 : 1 Makhachkala Anzhi 1.90 3.27 3.94
18:00 Krasnodar FK 0 : 1 CSKA Moskva 2.20 3.12 3.24
 Futball Portugália Taça de Portugal 2017/2018
16:00 Torcatense 0 : 1 Marítimo 7.35 4.58 1.33
16:00 Vas. De Gama De S. 1 : 6 Guimaraes 14.40 7.00 1.13
17:00 Cova Piedade 2 : 1 ot(p) Anadia 1.45 3.79 6.90
19:00 Sao Martinho 2 : 3 Braga 12.00 6.60 1.15
19:00 Viseu 0 : 1 ot(p) Feirense 2.44 2.94 2.89
20:00 Olhanense SC 0 : 1 Benfica Lisabon 17.60 8.20 1.10
 Futball Románia Liga I 2017/2018
15:30 Gaz Metan Mediaş 0 : 1 Viitorul Constanta 3.22 3.03 2.17
18:15 CSMS Iasi 1 : 2 Universitatea Craiova 3.54 2.99 2.08
 Futball Románia Liga II 2017/2018
10:00 Damila Maciuca 0 : 0 Pandurii 2.17 3.20 3.05
10:00 Dacia Unirea Braila 2 : 2 Mioveni 2.57 3.33 2.37
10:00 Luceafarul Oradea 1 : 2 Afumati 2.44 3.21 2.61
10:00 Pitesti SCM 1 : 1 Buftea CS 1.90 3.30 3.63
10:00 Rapid Suceava 0 : 2 Dunarea Calarasi 3.25 3.29 2.00
10:00 Ripensia Timisoara 1 : 2 Balotesti 1.48 4.05 5.38
10:00 Chindia Targoviste 3 : 0 Metaloglobus Bukure 1.41 4.05 6.69
10:00 Stiinta Miroslava 2 : 1 Olimpia Satu Mare 2.54 3.14 2.55
 Futball Skócia First Division 2017/2018
16:00 Falkirk FC 0 : 0 Caledonian Thistle 1.85 3.52 3.64
16:00 Dumbarton 0 : 2 St. Mirren 4.34 3.70 1.66
16:00 Queen of the South 0 : 0 Dunfermline 2.20 3.32 2.91
16:00 Brechin 0 : 1 Greenock Morton 5.90 4.03 1.47
16:00 Livingston 2 : 0 Dundee Utd. 3.24 3.36 2.05
 Futball Skócia Premier League 2017/2018
16:00 Partick Thistle 0 : 2 Kilmarnock FC 2.02 3.34 3.52
16:00 Hibernian 0 : 1 Aberdeen FC 2.23 3.40 2.98
16:00 Hamilton 1 : 2 Motherwell FC 2.96 3.31 2.28
16:00 Ross County 1 : 2 Hearts of Midlothian 2.79 3.41 2.35
16:00 Celtic Glasgow 1 : 0 Dundee FC 1.09 9.90 18.80
 Futball Skócia Scottish Cup 2017/2018
16:00 Stirling Albion 3 : 5 Lothian Hutchison 1.16 6.55 10.70
16:00 Deveronvale 0 : 2 Glenafton Athletic 2.35 3.62 2.44
16:00 Banks O Dee FC 2 : 0 Selkirk 4.63 4.37 1.50
16:00 Montrose 4 : 1 Stirling University 1.40 4.55 5.69
16:00 Formartine Utd 4 : 0 East Stirling 2.40 3.58 2.39
16:00 Spartans 5 : 0 Clachnacuddin 1.46 4.50 5.04
16:00 Civil Service Strollers 0 : 5 Brora Rangers FC 5.35 4.38 1.45
16:00 Cowdenbeath 0 : 1 East Kilbride 1.71 3.76 3.88
16:00 Berwick 1 : 0 Annan Athletic 2.83 3.56 2.17
16:00 Edinburgh University 0 : 2 Fraserburgh 5.90 4.50 1.40
16:00 Buckie Thistle 6 : 2 BSC Glasgow 1.94 3.75 3.07
16:00 Nairn County 1 : 2 Cove Rangers 5.94 4.76 1.40
16:00 Keith FC 0 : 3 Clyde 5.44 4.68 1.41
16:00 Peterhead 9 : 0 Colville Park 1.17 6.50 10.15
16:00 Elgin 3 : 1 Edusport Academy 1.32 4.66 7.44
 Futball Skócia Second Division 2017/2018
16:00 Raith Rovers 2 : 0 Arbroath 1.72 3.70 4.03
16:00 Queen's Park FC 1 : 1 Forfar 2.14 3.51 2.84
16:00 East Fife 5 : 4 Albion Rovers 2.12 3.48 2.89
16:00 Stranraer 2 : 0 Alloa 2.10 3.48 2.93
16:00 Ayr. United 2 : 2 Airdrieonians 1.47 4.20 5.49
 Kosárlabda Spanyolország 1st League W 2017/2018
18:00 Caja Rural Tintos De Toro 80 : 73 Campus Promete Logrono 1.63 - 2.13
18:15 Bembibre PDM 77 : 78 ot Bizkaia Ibaizabal 1.71 - 1.98
19:00 Girona 72 : 54 Ferrol 1.21 - 3.90
19:45 La Seu D'Urgell 48 : 64 Salamanca Halcon 8.13 - 1.04
 Kosárlabda Spanyolország ACB M 2017/2018
19:00 Unicaja Malaga 99 : 71 San Fernando Sevilla 1.05 16.00 8.50
20:00 Burgos 72 : 87 Estudiantes 2.25 12.00 1.65
 Kézilabda Spanyolország Asobal M 2017/2018
17:00 Puerto Sagunto CB 25 : 34 Granollers BM 3.95 9.83 1.36
18:30 Frig. Morrazo Cangas 28 : 27 Cuenca Ciudad Encantada 3.00 8.83 1.55
18:30 Benidorm 32 : 28 Zamora 1.20 12.33 5.67
19:00 Huesca BM 34 : 23 SD Teucro 1.34 10.33 4.10
20:00 Valladolid BM 29 : 28 CD Bidasoa 1.43 9.50 3.47
 Futball Spanyolország La Liga 2017/2018
13:00 Athletic Bilbao 1 : 0 FC Sevilla 2.47 3.24 2.92
16:15 Getafe 1 : 2 Real Madrid 9.35 5.80 1.29
18:30 Alavés 0 : 2 Real Sociedad 3.48 3.40 2.10
20:45 Atletico Madrid 1 : 1 FC Barcelona 2.87 3.35 2.45
 Futball Spanyolország Liga BBVA 2017/2018
16:00 Cádiz FC 2 : 2 Leonesa Cultural 1.85 3.29 4.25
18:00 Granada 2 : 0 Oviedo 2.25 3.09 3.22
18:00 Barcelona FC B 1 : 0 Lorca 1.91 3.29 3.88
20:00 Tenerife CD 1 : 1 Numancia 1.81 3.24 4.52
 Futball Spanyolország Segunda B - Group I 2017/2018
17:00 Valladolid B 1 : 0 Cerceda 2.24 3.03 3.01
18:00 Ferrol 1 : 2 Uni 1.56 3.38 5.81
21:00 Real Madrid B 0 : 0 Gimnastica Segoviana 1.52 3.80 5.38
 Futball Spanyolország Segunda B - Group II 2017/2018
16:00 Vitoria 0 : 0 Santander 3.74 3.13 1.90
17:00 Osasuna B 0 : 3 San Sebastian Real B 2.26 3.11 2.86
18:00 Leioa 1 : 2 Izarra 1.62 3.40 5.06
 Futball Spanyolország Segunda B - Group III 2017/2018
17:30 Saguntino 1 : 1 Sabadell CE 2.24 2.85 3.24
18:00 Llagostera 2 : 1 Elche FC 3.55 3.20 1.94
18:00 Ontinyent 1 : 0 Olot 1.96 3.01 3.74
 Futball Svájc Challenge League 2017/2018
19:00 Schaffhausen FC 2 : 1 Wohlen FC 1.49 4.28 5.12
19:00 Wil 1 : 3 Aarau FC 3.09 3.37 2.06
 Jégkorong Svájc Nationalliga A 2017/2018
19:45 Langnau 0 : 2 Bern 3.33 4.53 1.78
19:45 Biel Bienne EHC 4 : 2 Kloten 1.75 4.48 3.48
19:45 SC Curych 7 : 3 Zug 1.73 4.62 3.52
19:45 Lugano 4 : 3 Davos 2.03 4.23 2.85
 Futball Svájc Super League 2017/2018
19:00 Lausanne 2 : 1 Young Boys Bern 5.60 4.20 1.51
19:00 Lugano AC 0 : 4 FC Basel 4.48 3.55 1.72
 Futball Svédország Allsvenskan 2017
14:00 Halmstad BK 1 : 2 IFK Göteborg 3.38 3.43 2.02
16:00 Häcken BK 3 : 0 AFC United 1.41 4.56 6.25
16:00 Östersunds FK 3 : 0 Örebro SK 1.49 4.20 5.70
 Jégkorong Svédország Elitserien 2017/2018
15:15 Skelleftea AIK 1 : 2 Brynas Gavle 1.74 4.47 3.67
15:15 Linköpings 2 : 3 Frolunda 2.17 4.02 2.78
15:15 Djurgarden IF 6 : 0 Mora IK 1.40 5.43 5.88
18:00 HV 71 2 : 4 Farjestad 2.03 4.12 2.98
18:00 Karlskrona HK 1 : 3 Vaxjö Lakers HC 3.57 4.30 1.81
 Kézilabda Svédország Elitserien M 2017/2018
17:30 Lugi HK 25 : 20 Ricoh HK 1.25 11.25 4.95
 Futball Svédország Superettan 2017
14:00 Norrby IF 2 : 0 Degerfors 2.12 3.32 3.04
16:00 IK Frej 1 : 0 Varbergs BoIS FC 2.19 3.19 3.00
16:00 Dalkurd FF 1 : 2 Östers 1.35 4.44 6.88
 Futball Szerbia Super Liga 2017/2018
15:00 Zemun 0 : 0 Vojvodina Nový Sad 2.86 3.12 2.33
16:00 Crvena zvezda Bělehrad 4 : 0 Ma 1.07 9.63 15.50
16:00 Radnički Niš 1 : 1 Vozdovac Beograd 1.67 3.34 4.76
17:00 Čukarički Bělehrad 0 : 0 Javor Ivanjica 1.58 3.60 5.25
17:00 Rad Bělehrad 0 : 2 Spartak Zlatibor Voda 3.61 3.19 1.95
 Futball Szingapúr S-League 2017
13:30 Singapore Armed Forces 0 : 1 Young Lions 1.17 6.69 10.38
 Kézilabda Szlovákia Extraliga M 2017/2018
16:00 Pre 28 : 28 Topolčany - - -
18:00 Bratislava 23 : 23 Nové Zámky - - -
18:00 Prešov 44 : 26 - - -
18:00 Považská Bystrica 33 : 27 Modra Slovan - - -
 Futball Szlovákia Super Liga 2017/2018
15:00 Michalovce 0 : 3 Trnava 3.51 3.10 2.01
17:00 Slovan Bratislava 3 : 2 Prešov 1.14 6.95 12.55
17:00 Trenčín 4 : 1 Senica SH 1.15 6.44 12.25
17:00 Podbrezova 0 : 2 Dunajská Streda 3.46 3.20 2.01
18:00 Ružomberok 1 : 1 Zlaté Moravce 1.60 3.68 4.89
 Futball Szlovénia 1. SNL 2017/2018
13:00 Triglav 3 : 1 Krsko Posavje 2.43 3.17 2.64
15:30 Gorica Nova Gorica 2 : 1 Celje Biostart Publikum 1.96 3.26 3.51
17:00 Domzale 6 : 0 Ankaran 1.18 6.36 11.69
20:20 Aluminij Kidricevo 1 : 2 Olimpija Lublaň 4.89 3.54 1.63
 Kézilabda Szlovénia 1.liga M 2017/2018
19:00 Šmartno 99 RD 30 : 29 Termo Škofja Loka - - -
19:00 Cimos Koper 30 : 31 Ribnica - - -
19:00 Jeruzalem Omrož 32 : 31 Dobova MRD - - -
 Futball Szlovénia 2. SNL 2017/2018
15:00 Bravo Publikum 0 : 3 Mura Murska Sobota - - -
15:30 Ver 0 : 4 Roga - - -
15:30 Krka 3 : 2 Tabor - - -
15:30 Dob Roltek 2 : 5 Kranj - - -
 Futball Törökország Super League 2017/2018
13:00 Karabukspor 1 : 0 Kayserispor II 2.51 3.29 2.69
15:30 Istanbul Büyüksehir 2 : 1 Alanyaspor K 1.47 4.42 6.00
15:30 Antalyaspor 1 : 3 Göztepe 1.90 3.69 3.62
18:30 Kombassan Konyaspor 0 : 2 Galatasaray 4.93 3.84 1.63
 Kosárlabda Törökország TBL M 2017/2018
12:00 Besiktas Istanbul 91 : 94 ot Yesilgiresun Belediye 1.09 16.00 6.75
14:15 Royal Hali Gaziantep 74 : 73 Pinar Karsiyaka Izmir 1.45 13.00 2.70
16:00 Istanbul Buyuksehir Belediyesi 82 : 70 Demir Insaat 1.55 13.00 2.45
19:15 Usak Sportlif 73 : 86 Tofas Spor Kulubu Bursa 2.50 13.00 1.52
 Futball Ukrajna Premier League 2017/2018
16:00 Stal Dniprodzerzhinsk 0 : 1 Zorya Luhansk 7.50 4.07 1.38
16:00 Veres Rivne 1 : 1 Illichivets Mariupol 2.09 2.99 3.47
 Futball Uruguay Primera Division 2017
20:30 Defensor Sporting 2 : 1 River Plate (URU) 1.94 3.30 3.55
21:30 Fénix 1 : 2 Racing Montevideo 2.58 3.12 2.53
23:00 Rampla Juniors 1 : 4 Peňarol 6.40 4.04 1.43
 Futball Wales Premier League 2017/2018
15:30 Llandudno 2 : 3 Aberystwyth Town 1.73 3.55 4.14
15:30 Bangor City 2 : 3 Cardiff MU 1.75 3.65 3.85
15:30 Carmarthen Town 1 : 2 Connah's Quay 3.78 3.62 1.77
15:30 Barry Town 1 : 3 Newi Cefn Druids 1.85 3.48 3.61
15:30 Llansantffraid 6 : 1 Prestatyn Town 1.12 7.45 12.80

Sportstatisztikák

  • futball, kosárlabda, kézilabda és jégkorong statisztika több, mint 90 bajnokságból (eredmények, tabellák, következő mérközések, egyéb hasznos statisztikák, fogadóirodák oddsai)
  • egyéb hasznos dolgok: tippek; csapatok, illetve bajnokságok összehasonlitása; sorozatok (pl. egy csapat hány meccset nyert meg sorozatban); kiválasztások ( pl. melyik csapat nem nyert még mérközést); friss eredmények, fórum, sportfogadás.
  • az eredmények rendszeresen frissülnek, naponta többször

A funkciók részletes leirásait megtalálod a Súgóban.